TOURFACTS.DK  
Stats and Facts from Tour de France.

Tour de France 2018 starts in 11 days
  Riders   Stages   Teams   Summits   Yearly  


 
Search by year

After 2017 - Stage 21:
 14824 starters.
  5132 different riders.
  639 teams.
  2232 stages.
  456 restdays.
  439589.60 km.
  5653 abandonnees.


Top 3
GC
Christopher Froome86:20:55
Rigoberto Urán86:21:49
Romain Bardet86:23:15
Climb
Warren Barguil169 pt.
Primoz Roglic80 pt.
Thomas De Gendt64 pt.
Sprint
Michael Matthews359 pt.
André Greipel234 pt.
Edvald Boasson Hagen220 pt.
Youth
Simon Yates86:27:09
Louis Meintjes86:29:15
Emanuel Buchmann86:54:16
Facts from Tour de France 1963
  |   Stages.  |   Stage winners.  |   Days in yellow  |   Average speed.  |   Route.  |   Teams.  |   All riders.  |   Rookies.  |  

  |   Withdrawls.  |   GC.  |   Polka  |   Green  |   White  |   Summits. (In tour)  |   Miscellaneous.  |  

Stage 6b on 28 - 06 - 1963
         Owning:    Gilbert Desmet 1    
Pick a stage:  1 2a 2b 3 4 5 6a 6b 7 8 9 10 11 12 13 14 15 16 17 18 19 20 21
  AngersAngers | Dist: 24.50 km.

Average speed for all riders in stage:  41,649 km./hr.
    Place:Name:Team:Time:Km/h:
FRAJacques AnquetilFRASaint Raphael-Geminiani-Dunlop00:31:58  +  00:00:00=45,985 
FRARaymond PoulidorFRAMercier-BP-Hutchinson00:32:43  +  00:00:45=44,931 
BELGilbert Desmet 1BELWiel´s-Groene Leeuw00:32:53  +  00:00:55=44,703 
4 BELJoseph PlanckaertBELFaema-Flandria00:33:01  +  00:01:03=44,523 
5 BELFerdinand BrackeFRAPeugeot-BP-Englebert00:33:07  +  00:01:09=44,389 
6 FRAJoseph VellyFRAMargnat-Paloma-Motul-Dunlop00:33:16  +  00:01:18=44,188 
7 FRAHenri AngladeFRAPelforth-Sauvage-Lejeune-Wolbe..00:33:20  +  00:01:22=44,100 
8 ESPAngelino SolerBELFaema-Flandria00:33:28  +  00:01:30=43,924 
9 ESPMiguel PachecoNLDKas00:33:35  +  00:01:37=43,772 
10 ESPFederico BahamontesFRAMargnat-Paloma-Motul-Dunlop00:33:36  +  00:01:38=43,750 
11 NEDAlbertus GeldermansFRASaint Raphael-Geminiani-Dunlop00:33:38  +  00:01:40=43,707 
12 ESPFrancisco GabicNLDKas00:33:39  +  00:01:41=43,685 
13 GERHans JunkermannBELWiel´s-Groene Leeuw00:33:40  +  00:01:42=43,663 
14 BELFrans MelckenbeeckFRAMercier-BP-Hutchinson00:33:54  +  00:01:56=43,363 
15 FRAJean-Claude LebaubeFRASaint Raphael-Geminiani-Dunlop00:33:54  +  00:01:56=43,363 
16 ITAAntonio BailettiITACarpano00:33:55  +  00:01:57=43,342 
17 ESPJosé GomezBELFaema-Flandria00:34:00  +  00:02:02=43,235 
18 FRAJean DupontFRAMargnat-Paloma-Motul-Dunlop00:34:05  +  00:02:07=43,130 
19 BELLouis ProostFRASolo-Terrot-Englebert00:34:06  +  00:02:08=43,109 
20 BELRik Van LooyBELG.B.C-Libertas00:34:08  +  00:02:10=43,066 
21 ESPLuis OtañoFRAMargnat-Paloma-Motul-Dunlop00:34:13  +  00:02:15=42,962 
22 ESPJosé Pérez FrancésESPFerrys00:34:14  +  00:02:16=42,941 
23 ESPValentin UrionaNLDKas00:34:16  +  00:02:18=42,899 
24 ITAGraziano BattistiniBELI.B.A.C-Molteni00:34:18  +  00:02:20=42,857 
25 BELLudo JanssensBELG.B.C-Libertas00:34:19  +  00:02:21=42,836 
26 FRAJean StablinskiFRASaint Raphael-Geminiani-Dunlop00:34:22  +  00:02:24=42,774 
27 ESPAntonio SuarezBELFaema-Flandria00:34:23  +  00:02:25=42,753 
28 ITALoris GuernieriITACarpano00:34:25  +  00:02:27=42,712 
29 BELVictor Van SchilFRAMercier-BP-Hutchinson00:34:26  +  00:02:28=42,691 
30 ENGAlan RamsbottomFRAPelforth-Sauvage-Lejeune-Wolbe..00:34:30  +  00:02:32=42,609 
31 ESPFernando ManzanequeESPFerrys00:34:35  +  00:02:37=42,506 
32 ESPEusebio VelezNLDKas00:34:36  +  00:02:38=42,486 
33 FRAGuy IgnolinFRASaint Raphael-Geminiani-Dunlop00:34:39  +  00:02:41=42,424 
34 BELEddy PauwelsBELWiel´s-Groene Leeuw00:34:39  +  00:02:41=42,424 
35 BELAugust VerhaegenFRAMercier-BP-Hutchinson00:34:41  +  00:02:43=42,383 
36 NEDJan JanssenFRAPelforth-Sauvage-Lejeune-Wolbe..00:34:41  +  00:02:43=42,383 
37 BELGuillaume Van TongerlooBELG.B.C-Libertas00:34:42  +  00:02:44=42,363 
38 ESPSebastián ElorzaNLDKas00:34:44  +  00:02:46=42,322 
39 ITAGuido CarlesiBELI.B.A.C-Molteni00:34:45  +  00:02:47=42,302 
40 BELArmand DesmetBELFaema-Flandria00:34:46  +  00:02:48=42,282 
41 FRARoland LacombeFRAPelforth-Sauvage-Lejeune-Wolbe..00:34:47  +  00:02:49=42,262 
42 BELFrans BrandsBELFaema-Flandria00:34:49  +  00:02:51=42,221 
43 BELWilly BocklantBELFaema-Flandria00:34:50  +  00:02:52=42,201 
44 BELEmile DaemsFRAPeugeot-BP-Englebert00:34:52  +  00:02:54=42,161 
45 FRAAndré DarrigadeFRAMargnat-Paloma-Motul-Dunlop00:34:53  +  00:02:55=42,140 
46 NEDDick EnthovenFRAPelforth-Sauvage-Lejeune-Wolbe..00:34:56  +  00:02:58=42,080 
47 BELGilbert Desmet 2BELWiel´s-Groene Leeuw00:34:56  +  00:02:58=42,080 
48 NEDHuub ZilverbergBELG.B.C-Libertas00:34:57  +  00:02:59=42,060 
49 FRAJean GaincheFRAMercier-BP-Hutchinson00:34:58  +  00:03:00=42,040 
50 BELDaniel DoomBELWiel´s-Groene Leeuw00:34:59  +  00:03:01=42,020 
51 FRAHenry DuezFRAPeugeot-BP-Englebert00:35:04  +  00:03:06=41,920 
52 BELNoël ForéBELFaema-Flandria00:35:04  +  00:03:06=41,920 
53 BELArthur DecabooterFRASolo-Terrot-Englebert00:35:11  +  00:03:13=41,781 
54 ESPGabriel MasESPFerrys00:35:13  +  00:03:15=41,742 
55 ITAGiancarlo GentinaITACarpano00:35:17  +  00:03:19=41,663 
56 ESPJulio San EmeterioESPFerrys00:35:20  +  00:03:22=41,604 
57 ITARenzo FontonaBELI.B.A.C-Molteni00:35:21  +  00:03:23=41,584 
58 GERDieter PuschelBELWiel´s-Groene Leeuw00:35:25  +  00:03:27=41,506 
59 BELAlfons HellemansFRAMercier-BP-Hutchinson00:35:28  +  00:03:30=41,447 
60 IRLSeamus ElliottFRASaint Raphael-Geminiani-Dunlop00:35:30  +  00:03:32=41,408 
61 BELJaak De BoeverFRASolo-Terrot-Englebert00:35:30  +  00:03:32=41,408 
62 ITAAngelo OttavianiBELI.B.A.C-Molteni00:35:32  +  00:03:34=41,370 
63 ESPAntonio KarmanyESPFerrys00:35:32  +  00:03:34=41,370 
64 BELMichel Van AerdeFRASolo-Terrot-Englebert00:35:34  +  00:03:36=41,331 
65 FRAAndré FoucherFRAPelforth-Sauvage-Lejeune-Wolbe..00:35:36  +  00:03:38=41,292 
66 BELAndré MesselisBELWiel´s-Groene Leeuw00:35:37  +  00:03:39=41,273 
67 SUIKurt GimmiITACarpano00:35:37  +  00:03:39=41,273 
68 ESPEsteban MartinESPFerrys00:35:37  +  00:03:39=41,273 
69 BELFrans AerenhoutsBELG.B.C-Libertas00:35:38  +  00:03:40=41,254 
70 ESPRogelio HernandezESPFerrys00:35:39  +  00:03:41=41,234 
71 ITAGiuseppe SartoreITACarpano00:35:39  +  00:03:41=41,234 
72 FRAGérard ThiélinFRASaint Raphael-Geminiani-Dunlop00:35:39  +  00:03:41=41,234 
73 FRAJean DottoFRAMargnat-Paloma-Motul-Dunlop00:35:40  +  00:03:42=41,215 
74 BELBenoni BeheytBELWiel´s-Groene Leeuw00:35:43  +  00:03:45=41,157 
75 BELRoger De BreukerFRASolo-Terrot-Englebert00:35:43  +  00:03:45=41,157 
76 BELJos HoevenaersFRAPeugeot-BP-Englebert00:35:45  +  00:03:47=41,119 
77 BELClément RomanBELFaema-Flandria00:35:47  +  00:03:49=41,081 
78 LUXCharly GaulFRAPeugeot-BP-Englebert00:35:51  +  00:03:53=41,004 
79 FRAJoseph GroussardFRAPelforth-Sauvage-Lejeune-Wolbe..00:35:51  +  00:03:53=41,004 
80 FRAPierre BeuffeuilFRAMercier-BP-Hutchinson00:35:53  +  00:03:55=40,966 
81 BELRoger BaensBELG.B.C-Libertas00:35:53  +  00:03:55=40,966 
82 FRAClaude MattioFRAMargnat-Paloma-Motul-Dunlop00:35:55  +  00:03:57=40,928 
83 BELEdgard SorgeloosBELG.B.C-Libertas00:35:55  +  00:03:57=40,928 
84 FRARobert CazalaFRAMercier-BP-Hutchinson00:35:57  +  00:03:59=40,890 
85 FRAAnatole NovakFRASaint Raphael-Geminiani-Dunlop00:36:00  +  00:04:02=40,833 
86 ITAGermano BaraleITACarpano00:36:03  +  00:04:05=40,777 
87 BELMartin Van GeneugdenBELG.B.C-Libertas00:36:06  +  00:04:08=40,720 
88 BELMarcel SeynaeveFRASolo-Terrot-Englebert00:36:06  +  00:04:08=40,720 
89 ITACarlo AzziniITACarpano00:36:07  +  00:04:09=40,701 
90 BELHenri De WolfFRASolo-Terrot-Englebert00:36:08  +  00:04:10=40,683 
91 BELYvo MolenaersBELWiel´s-Groene Leeuw00:36:10  +  00:04:12=40,645 
92 ESPEmilio CruzESPFerrys00:36:15  +  00:04:17=40,552 
93 FRAJean GraczykFRAMargnat-Paloma-Motul-Dunlop00:36:18  +  00:04:20=40,496 
94 ESPAntonio BarrutiaNLDKas00:36:18  +  00:04:20=40,496 
95 FRAGuy EpaudFRAPelforth-Sauvage-Lejeune-Wolbe..00:36:20  +  00:04:22=40,459 
96 ITAErnesto MinettoBELI.B.A.C-Molteni00:36:22  +  00:04:24=40,422 
97 BELJean SimonFRAPeugeot-BP-Englebert00:36:25  +  00:04:27=40,366 
98 BELRaymond ImpanisFRAPeugeot-BP-Englebert00:36:28  +  00:04:30=40,311 
99 BELMarcel OngenaeBELFaema-Flandria00:36:29  +  00:04:31=40,292 
100 FRAJean MilesiFRAMercier-BP-Hutchinson00:36:32  +  00:04:34=40,237 
101 FRAJoseph ThominFRAMargnat-Paloma-Motul-Dunlop00:36:32  +  00:04:34=40,237 
102 ITAGiacomo FornoniBELI.B.A.C-Molteni00:36:35  +  00:04:37=40,182 
103 ITAGiuseppe CeramiFRAPeugeot-BP-Englebert00:36:36  +  00:04:38=40,164 
104 ITAVendramino BarivieraITACarpano00:36:38  +  00:04:40=40,127 
105 ESPJuan CampilloFRAMargnat-Paloma-Motul-Dunlop00:36:40  +  00:04:42=40,091 
106 FRAGeorges GroussardFRAPelforth-Sauvage-Lejeune-Wolbe..00:36:41  +  00:04:43=40,073 
107 ESPAntonio BertranESPFerrys00:36:41  +  00:04:43=40,073 
108 BELRené Van MeenenBELWiel´s-Groene Leeuw00:36:46  +  00:04:48=39,982 
109 FRAPierre EveraertFRASaint Raphael-Geminiani-Dunlop00:36:49  +  00:04:51=39,928 
110 FRAFrançois MahéFRAPelforth-Sauvage-Lejeune-Wolbe..00:36:52  +  00:04:54=39,873 
111 BELWilly DerbovenBELG.B.C-Libertas00:36:55  +  00:04:57=39,819 
112 FRALouis RostollanFRASaint Raphael-Geminiani-Dunlop00:36:57  +  00:04:59=39,783 
113 ITAPeppino DanteBELI.B.A.C-Molteni00:36:59  +  00:05:01=39,748 
114 ITADanilo FerrariBELI.B.A.C-Molteni00:37:01  +  00:05:03=39,712 
115 ESPRaúl ReyESPFerrys00:37:06  +  00:05:08=39,623 
116 ITARoberto FalaschiBELI.B.A.C-Molteni00:37:10  +  00:05:12=39,552 
117 BELRobert LelangueFRASolo-Terrot-Englebert00:37:13  +  00:05:15=39,498 
118 BELWilly SchroedersBELG.B.C-Libertas00:37:22  +  00:05:24=39,340 
119 BELWilly VannitsenFRAPeugeot-BP-Englebert00:37:25  +  00:05:27=39,287 


Todays birthdays.

1902  Bernard Wiber
1908  Auguste Van Tricht
1910  Orlando Teani
1913  Gustaaf Deloor
1935  Jean Milesi
1972  Robbie McEwen




Visits: